Time;durP1;ratioP1;P1;durP2;ratioP2;P2;SDS_P1;SDS_P2;PMS_P1;PMS_P2;Temp;Humidity;BMP_temperature;BMP_pressure;BME280_temperature;BME280_humidity;BME280_pressure;Samples;Min_cycle;Max_cycle;Signal;HPM_P1;HPM_P2
2022/10/18 00:01:34;;;;;;;;;;;;;;;12.71;84.90332;102639.9;;;;-75
2022/10/18 00:06:34;;;;;;;;;;;;;;;12.67;85.28516;102637.7;;;;-74
2022/10/18 00:11:03;;;;;;;4.9;1.9;;;;;;;;;;;;;-75
2022/10/18 00:11:34;;;;;;;;;;;;;;;12.6;84.64941;102633.5;;;;-75
2022/10/18 00:16:34;;;;;;;;;;;;;;;12.6;85.28223;102636.7;;;;-74
2022/10/18 00:21:34;;;;;;;;;;;;;;;12.54;85.1377;102641.1;;;;-74
2022/10/18 00:26:34;;;;;;;;;;;;;;;12.49;84.83887;102646.9;;;;-73
2022/10/18 00:31:35;;;;;;;;;;;;;;;12.44;85.30762;102642.3;;;;-75
2022/10/18 00:36:35;;;;;;;;;;;;;;;12.37;84.72754;102636.7;;;;-75
2022/10/18 00:41:04;;;;;;;5.6;2.1;;;;;;;;;;;;;-75
2022/10/18 00:41:35;;;;;;;;;;;;;;;12.33;84.43164;102636.8;;;;-75
2022/10/18 00:46:35;;;;;;;;;;;;;;;12.27;84.77441;102644.9;;;;-74
2022/10/18 00:51:39;;;;;;;;;;;;;;;12.26;84.52734;102653.5;;;;-74
2022/10/18 00:56:35;;;;;;;;;;;;;;;12.23;85.13184;102650.8;;;;-76
2022/10/18 01:01:34;;;;;;;;;;;;;;;12.17;84.25586;102649.7;;;;-74
2022/10/18 01:06:35;;;;;;;;;;;;;;;12.16;84.8291;102646.4;;;;-74
2022/10/18 01:11:11;;;;;;;2.8;1.6;;;;;;;;;;;;;-76
2022/10/18 01:11:40;;;;;;;;;;;;;;;12.09;85.03906;102649.5;;;;-75
2022/10/18 01:16:36;;;;;;;;;;;;;;;12.05;84.67676;102663.4;;;;-75
2022/10/18 01:21:45;;;;;;;;;;;;;;;12.03;84.22852;102657.8;;;;-74
2022/10/18 01:26:40;;;;;;;;;;;;;;;11.92;84.41797;102661;;;;-74
2022/10/18 01:31:37;;;;;;;;;;;;;;;11.87;84.17676;102649.7;;;;-75
2022/10/18 01:36:35;;;;;;;;;;;;;;;11.79;84.19238;102653.4;;;;-74
2022/10/18 01:41:07;;;;;;;3.3;1.7;;;;;;;;;;;;;-75
2022/10/18 01:41:35;;;;;;;;;;;;;;;11.72;84.41406;102646.1;;;;-76
2022/10/18 01:46:35;;;;;;;;;;;;;;;11.66;84.24512;102659.7;;;;-75
2022/10/18 01:51:34;;;;;;;;;;;;;;;11.59;84.2002;102667.6;;;;-74
2022/10/18 01:56:37;;;;;;;;;;;;;;;11.51;84.37207;102663.2;;;;-73
2022/10/18 02:01:40;;;;;;;;;;;;;;;11.47;84.41113;102666.3;;;;-75
2022/10/18 02:06:37;;;;;;;;;;;;;;;11.43;84.44531;102671.5;;;;-75
2022/10/18 02:11:09;;;;;;;4.3;2;;;;;;;;;;;;;-75
2022/10/18 02:11:35;;;;;;;;;;;;;;;11.41;84.94043;102664.3;;;;-75
2022/10/18 02:16:37;;;;;;;;;;;;;;;11.44;84.37109;102671.3;;;;-75
2022/10/18 02:21:35;;;;;;;;;;;;;;;11.45;84.30469;102668;;;;-76
2022/10/18 02:26:34;;;;;;;;;;;;;;;11.47;84.22168;102669.3;;;;-75
2022/10/18 02:31:37;;;;;;;;;;;;;;;11.49;84.04785;102675.1;;;;-75
2022/10/18 02:36:36;;;;;;;;;;;;;;;11.46;84.31738;102668;;;;-76
2022/10/18 02:41:08;;;;;;;4.7;1.9;;;;;;;;;;;;;-74
2022/10/18 02:41:34;;;;;;;;;;;;;;;11.43;83.98047;102660.3;;;;-75
2022/10/18 02:46:34;;;;;;;;;;;;;;;11.44;83.93945;102665.8;;;;-75
2022/10/18 02:51:34;;;;;;;;;;;;;;;11.39;84.06348;102669.2;;;;-75
2022/10/18 02:56:34;;;;;;;;;;;;;;;11.38;84.02734;102671.4;;;;-73
2022/10/18 03:01:34;;;;;;;;;;;;;;;11.34;84.19531;102682.6;;;;-75
2022/10/18 03:06:34;;;;;;;;;;;;;;;11.35;84.17676;102684.8;;;;-74
2022/10/18 03:11:09;;;;;;;4.4;1.8;;;;;;;;;;;;;-76
2022/10/18 03:11:34;;;;;;;;;;;;;;;11.31;84.14551;102689.5;;;;-76
2022/10/18 03:16:34;;;;;;;;;;;;;;;11.34;84.05078;102687.1;;;;-75
2022/10/18 03:21:34;;;;;;;;;;;;;;;11.29;83.99805;102679.2;;;;-75
2022/10/18 03:26:34;;;;;;;;;;;;;;;11.3;84.08984;102683.3;;;;-74
2022/10/18 03:31:34;;;;;;;;;;;;;;;11.25;84.5;102680;;;;-75
2022/10/18 03:36:34;;;;;;;;;;;;;;;11.24;83.8457;102683.4;;;;-75
2022/10/18 03:41:09;;;;;;;2.5;1.4;;;;;;;;;;;;;-74
2022/10/18 03:41:34;;;;;;;;;;;;;;;11.21;84.05078;102680.7;;;;-75
2022/10/18 03:46:34;;;;;;;;;;;;;;;11.16;84.16016;102672.8;;;;-75
2022/10/18 03:51:34;;;;;;;;;;;;;;;11.14;83.93555;102675.5;;;;-75
2022/10/18 03:56:34;;;;;;;;;;;;;;;11.11;83.80859;102679.3;;;;-74
2022/10/18 04:01:34;;;;;;;;;;;;;;;11.05;83.875;102686.1;;;;-75
2022/10/18 04:06:34;;;;;;;;;;;;;;;11;83.73242;102686.7;;;;-75
2022/10/18 04:11:12;;;;;;;2.3;1.3;;;;;;;;;;;;;-73
2022/10/18 04:11:34;;;;;;;;;;;;;;;10.97;83.94824;102678.9;;;;-75
2022/10/18 04:16:36;;;;;;;;;;;;;;;10.88;84.03027;102682.6;;;;-76
2022/10/18 04:21:34;;;;;;;;;;;;;;;10.85;84.00293;102685.7;;;;-74
2022/10/18 04:26:34;;;;;;;;;;;;;;;10.81;84.17188;102702.8;;;;-75
2022/10/18 04:31:34;;;;;;;;;;;;;;;10.75;83.85156;102709.6;;;;-75
2022/10/18 04:36:34;;;;;;;;;;;;;;;10.72;83.93457;102689;;;;-75
2022/10/18 04:41:10;;;;;;;2.2;1.1;;;;;;;;;;;;;-75
2022/10/18 04:41:38;;;;;;;;;;;;;;;10.67;84.22266;102695.4;;;;-75
2022/10/18 04:46:34;;;;;;;;;;;;;;;10.62;84.12402;102701;;;;-76
2022/10/18 04:51:34;;;;;;;;;;;;;;;10.56;84.00098;102709.5;;;;-75
2022/10/18 04:56:34;;;;;;;;;;;;;;;10.47;83.8877;102706.9;;;;-75
2022/10/18 05:01:34;;;;;;;;;;;;;;;10.38;83.93457;102699.5;;;;-76
2022/10/18 05:06:34;;;;;;;;;;;;;;;10.29;83.90625;102722;;;;-75
2022/10/18 05:11:11;;;;;;;2.6;1.4;;;;;;;;;;;;;-74
2022/10/18 05:11:34;;;;;;;;;;;;;;;10.22;83.86035;102709.9;;;;-75
2022/10/18 05:16:34;;;;;;;;;;;;;;;10.12;83.90723;102713.5;;;;-75
2022/10/18 05:21:34;;;;;;;;;;;;;;;10.06;83.89551;102731.9;;;;-75
2022/10/18 05:26:34;;;;;;;;;;;;;;;9.99;83.69336;102729.7;;;;-75
2022/10/18 05:31:34;;;;;;;;;;;;;;;9.93;83.9043;102726.1;;;;-74
2022/10/18 05:36:34;;;;;;;;;;;;;;;9.9;83.84375;102740.4;;;;-76
2022/10/18 05:41:12;;;;;;;2.8;1.4;;;;;;;;;;;;;-76
2022/10/18 05:41:36;;;;;;;;;;;;;;;9.82;83.75977;102750.5;;;;-75
2022/10/18 05:46:38;;;;;;;;;;;;;;;9.75;83.9248;102754.4;;;;-75
2022/10/18 05:51:34;;;;;;;;;;;;;;;9.71;83.9707;102761.1;;;;-75
2022/10/18 05:56:36;;;;;;;;;;;;;;;9.63;83.60352;102760.6;;;;-76
2022/10/18 06:01:35;;;;;;;;;;;;;;;9.57;84.06543;102770;;;;-74
2022/10/18 06:06:34;;;;;;;;;;;;;;;9.53;83.68359;102778.9;;;;-75
2022/10/18 06:11:16;;;;;;;3.4;1.8;;;;;;;;;;;;;-74
2022/10/18 06:11:34;;;;;;;;;;;;;;;9.51;83.94336;102780.8;;;;-76
2022/10/18 06:16:37;;;;;;;;;;;;;;;9.43;83.73047;102784.2;;;;-76
2022/10/18 06:21:34;;;;;;;;;;;;;;;9.44;83.66602;102788.6;;;;-75
2022/10/18 06:26:34;;;;;;;;;;;;;;;9.34;83.94434;102799.7;;;;-75
2022/10/18 06:31:34;;;;;;;;;;;;;;;9.33;83.74316;102800.3;;;;-74
2022/10/18 06:36:34;;;;;;;;;;;;;;;9.27;83.68848;102787.7;;;;-74
2022/10/18 06:41:13;;;;;;;2.4;1.4;;;;;;;;;;;;;-75
2022/10/18 06:41:34;;;;;;;;;;;;;;;9.22;83.74609;102796.4;;;;-74
2022/10/18 06:46:34;;;;;;;;;;;;;;;9.22;83.79883;102803.5;;;;-75
2022/10/18 06:51:34;;;;;;;;;;;;;;;9.19;83.72754;102815.4;;;;-74
2022/10/18 06:56:34;;;;;;;;;;;;;;;9.19;83.61719;102815.9;;;;-74
2022/10/18 07:01:34;;;;;;;;;;;;;;;9.21;83.55664;102824;;;;-75
2022/10/18 07:06:34;;;;;;;;;;;;;;;9.25;83.78418;102812.5;;;;-75
2022/10/18 07:11:17;;;;;;;3.1;1.4;;;;;;;;;;;;;-74
2022/10/18 07:11:34;;;;;;;;;;;;;;;9.34;83.72461;102825.4;;;;-75
2022/10/18 07:16:35;;;;;;;;;;;;;;;9.5;83.85352;102826.3;;;;-76
2022/10/18 07:21:34;;;;;;;;;;;;;;;9.69;83.2832;102832.6;;;;-74
2022/10/18 07:26:35;;;;;;;;;;;;;;;9.9;83.25684;102839.2;;;;-74
2022/10/18 07:31:34;;;;;;;;;;;;;;;10.08;82.86133;102833.6;;;;-75
2022/10/18 07:36:34;;;;;;;;;;;;;;;10.27;82.94141;102846.8;;;;-74
2022/10/18 07:41:15;;;;;;;2.9;1.4;;;;;;;;;;;;;-76
2022/10/18 07:41:34;;;;;;;;;;;;;;;10.46;84.23535;102852.9;;;;-76
2022/10/18 07:46:34;;;;;;;;;;;;;;;10.66;81.2793;102848.5;;;;-75
2022/10/18 07:51:35;;;;;;;;;;;;;;;10.86;80.85156;102856.2;;;;-74
2022/10/18 07:56:34;;;;;;;;;;;;;;;11.09;80.94824;102856.9;;;;-74
2022/10/18 08:01:34;;;;;;;;;;;;;;;11.38;80.95801;102858.7;;;;-75
2022/10/18 08:06:34;;;;;;;;;;;;;;;11.69;80.80469;102861;;;;-77
2022/10/18 08:11:16;;;;;;;3.2;1.3;;;;;;;;;;;;;-74
2022/10/18 08:11:34;;;;;;;;;;;;;;;12.03;80.83301;102858.3;;;;-74
2022/10/18 08:16:34;;;;;;;;;;;;;;;12.41;80.99219;102855.6;;;;-74
2022/10/18 08:21:36;;;;;;;;;;;;;;;12.76;80.67871;102875.3;;;;-74
2022/10/18 08:26:34;;;;;;;;;;;;;;;13.24;80.71094;102879.8;;;;-74
2022/10/18 08:31:34;;;;;;;;;;;;;;;13.67;79.30762;102882;;;;-75
2022/10/18 08:36:36;;;;;;;;;;;;;;;14.08;78.23145;102883.2;;;;-75
2022/10/18 08:41:23;;;;;;;3.1;1.3;;;;;;;;;;;;;-75
2022/10/18 08:41:43;;;;;;;;;;;;;;;14.5;77.29102;102889.2;;;;-74
2022/10/18 08:46:35;;;;;;;;;;;;;;;14.93;75.70801;102898.3;;;;-74
2022/10/18 08:51:36;;;;;;;;;;;;;;;15.36;74.12598;102891.1;;;;-75
2022/10/18 08:56:35;;;;;;;;;;;;;;;15.78;73.22949;102892.1;;;;-74
2022/10/18 09:01:39;;;;;;;;;;;;;;;16.21;71.34668;102892.7;;;;-74
2022/10/18 09:06:38;;;;;;;;;;;;;;;16.61;71.35547;102896;;;;-75
2022/10/18 09:11:26;;;;;;;3;1.3;;;;;;;;;;;;;-74
2022/10/18 09:11:45;;;;;;;;;;;;;;;16.93;70.10059;102895.4;;;;-74
2022/10/18 09:16:40;;;;;;;;;;;;;;;17.21;69.54688;102915.9;;;;-75
2022/10/18 09:21:40;;;;;;;;;;;;;;;17.35;68.04688;102914.3;;;;-75
2022/10/18 09:26:39;;;;;;;;;;;;;;;17.64;67.49219;102916.1;;;;-75
2022/10/18 09:31:39;;;;;;;;;;;;;;;17.91;66.55078;102919.7;;;;-75
2022/10/18 09:36:36;;;;;;;;;;;;;;;18.01;65.98926;102926.4;;;;-75
2022/10/18 09:41:22;;;;;;;5.1;1.1;;;;;;;;;;;;;-75
2022/10/18 09:41:39;;;;;;;;;;;;;;;18.11;65.82324;102927.6;;;;-73
2022/10/18 09:46:40;;;;;;;;;;;;;;;18.43;64.875;102923.3;;;;-74
2022/10/18 09:51:37;;;;;;;;;;;;;;;18.48;64.50879;102931.5;;;;-76
2022/10/18 09:56:38;;;;;;;;;;;;;;;18.64;64.65723;102926.4;;;;-76
2022/10/18 10:01:34;;;;;;;;;;;;;;;18.74;63.93555;102934;;;;-75
2022/10/18 10:06:37;;;;;;;;;;;;;;;18.89;64.09277;102921.7;;;;-75
2022/10/18 10:11:32;;;;;;;5.8;0.8;;;;;;;;;;;;;-73
2022/10/18 10:11:44;;;;;;;;;;;;;;;19;63.25781;102930.5;;;;-74
2022/10/18 10:16:34;;;;;;;;;;;;;;;19.13;63.15137;102945;;;;-75
2022/10/18 10:21:34;;;;;;;;;;;;;;;19.2;63.02539;102954.7;;;;-75
2022/10/18 10:26:37;;;;;;;;;;;;;;;19.28;62.63867;102950.9;;;;-75
2022/10/18 10:31:35;;;;;;;;;;;;;;;19.38;62.42676;102942.1;;;;-74
2022/10/18 10:36:35;;;;;;;;;;;;;;;19.46;62.5625;102955.6;;;;-75
2022/10/18 10:41:26;;;;;;;4.3;0.8;;;;;;;;;;;;;-75
2022/10/18 10:41:36;;;;;;;;;;;;;;;19.54;61.87012;102953.8;;;;-74
2022/10/18 10:46:39;;;;;;;;;;;;;;;19.6;61.70801;102965.7;;;;-74
2022/10/18 10:51:36;;;;;;;;;;;;;;;19.59;61.70801;102967.2;;;;-75
2022/10/18 10:56:35;;;;;;;;;;;;;;;19.58;61.34277;102970.1;;;;-74
2022/10/18 11:01:37;;;;;;;;;;;;;;;19.61;61.2666;102972;;;;-75
2022/10/18 11:06:41;;;;;;;;;;;;;;;19.67;61.13867;102973.6;;;;-74
2022/10/18 11:11:29;;;;;;;5.3;0.9;;;;;;;;;;;;;-74
2022/10/18 11:11:42;;;;;;;;;;;;;;;19.76;61.35449;102970.4;;;;-74
2022/10/18 11:16:35;;;;;;;;;;;;;;;19.81;61.18066;102982.6;;;;-76
2022/10/18 11:21:35;;;;;;;;;;;;;;;19.83;60.5127;102988.7;;;;-74
2022/10/18 11:26:47;;;;;;;;;;;;;;;19.81;61.12402;102990.7;;;;-74
2022/10/18 11:31:37;;;;;;;;;;;;;;;19.8;61.12207;102981.8;;;;-74
2022/10/18 11:36:40;;;;;;;;;;;;;;;19.73;61.27148;102983.9;;;;-74
2022/10/18 11:41:35;;;;;;;5.5;0.9;;;;;;;;;;;;;-75
2022/10/18 11:41:49;;;;;;;;;;;;;;;19.72;61.60059;102989.1;;;;-72
2022/10/18 11:46:45;;;;;;;;;;;;;;;19.7;62.30176;102985.6;;;;-75
2022/10/18 11:51:42;;;;;;;;;;;;;;;19.68;62.41211;102984.5;;;;-75
2022/10/18 11:56:37;;;;;;;;;;;;;;;19.66;62.5;102985;;;;-74
2022/10/18 12:01:39;;;;;;;;;;;;;;;19.58;63.47754;102984.5;;;;-75
2022/10/18 12:06:36;;;;;;;;;;;;;;;19.56;64.44922;102990.1;;;;-75
2022/10/18 12:11:33;;;;;;;4.7;0.8;;;;;;;;;;;;;-75
2022/10/18 12:11:46;;;;;;;;;;;;;;;19.49;64.51953;102981.3;;;;-74
2022/10/18 12:16:38;;;;;;;;;;;;;;;19.48;64.3916;102976.6;;;;-75
2022/10/18 12:21:35;;;;;;;;;;;;;;;19.48;64.29004;102972.5;;;;-73
2022/10/18 12:26:35;;;;;;;;;;;;;;;19.49;64.14648;102974.2;;;;-74
2022/10/18 12:31:37;;;;;;;;;;;;;;;19.47;64.08594;102965.8;;;;-75
2022/10/18 12:36:54;;;;;;;;;;;;;;;19.45;64.12891;102963.7;;;;-73
2022/10/18 12:41:36;;;;;;;;;;;;;;;19.47;64.15332;102964.4;;;;-74
2022/10/18 12:41:49;;;;;;;4.1;0.8;;;;;;;;;;;;;-74
2022/10/18 12:46:45;;;;;;;;;;;;;;;19.47;64.22168;102972.1;;;;-74
2022/10/18 12:51:34;;;;;;;;;;;;;;;19.49;63.74805;102957.3;;;;-74
2022/10/18 12:56:50;;;;;;;;;;;;;;;19.45;63.52734;102965.9;;;;-75
2022/10/18 13:01:44;;;;;;;;;;;;;;;19.38;63.46973;102960.1;;;;-74
2022/10/18 13:06:44;;;;;;;;;;;;;;;19.35;63.80762;102964.8;;;;-73
2022/10/18 13:11:40;;;;;;;;;;;;;;;19.38;64.12793;102955.2;;;;-74
2022/10/18 13:11:49;;;;;;;4.9;0.8;;;;;;;;;;;;;-74
2022/10/18 13:16:39;;;;;;;;;;;;;;;19.39;63.77734;102960.2;;;;-75
2022/10/18 13:21:43;;;;;;;;;;;;;;;19.43;63.7959;102955.3;;;;-73
2022/10/18 13:26:39;;;;;;;;;;;;;;;19.4;63.8252;102962.9;;;;-74
2022/10/18 13:31:40;;;;;;;;;;;;;;;19.41;63.9873;102964.5;;;;-73
2022/10/18 13:36:35;;;;;;;;;;;;;;;19.41;63.63574;102960.5;;;;-74
2022/10/18 13:41:34;;;;;;;;;;;;;;;19.37;64.03711;102962.4;;;;-74
2022/10/18 13:41:56;;;;;;;6.6;0.9;;;;;;;;;;;;;-74
2022/10/18 13:46:45;;;;;;;;;;;;;;;19.32;64.04102;102969.2;;;;-75
2022/10/18 13:51:39;;;;;;;;;;;;;;;19.31;64.17578;102969.7;;;;-74
2022/10/18 13:56:48;;;;;;;;;;;;;;;19.26;64.0332;102962.5;;;;-74
2022/10/18 14:01:40;;;;;;;;;;;;;;;19.2;64.38672;102967.8;;;;-75
2022/10/18 14:06:37;;;;;;;;;;;;;;;19.14;64.58105;102966.8;;;;-75
2022/10/18 14:11:37;;;;;;;;;;;;;;;19.13;64.43262;102964.3;;;;-76
2022/10/18 14:11:48;;;;;;;5.1;1.1;;;;;;;;;;;;;-76
2022/10/18 14:16:38;;;;;;;;;;;;;;;19.09;64.44043;102960.4;;;;-74
2022/10/18 14:21:40;;;;;;;;;;;;;;;19.05;64.69434;102963.2;;;;-74
2022/10/18 14:26:35;;;;;;;;;;;;;;;19.04;64.83887;102968.8;;;;-73
2022/10/18 14:31:34;;;;;;;;;;;;;;;19.02;64.71191;102972.4;;;;-74
2022/10/18 14:36:39;;;;;;;;;;;;;;;18.98;64.33203;102979.5;;;;-75
2022/10/18 14:41:37;;;;;;;;;;;;;;;18.91;64.15332;102985.4;;;;-73
2022/10/18 14:41:51;;;;;;;4.1;1;;;;;;;;;;;;;-73
2022/10/18 14:46:34;;;;;;;;;;;;;;;18.77;64.63086;102974.9;;;;-74
2022/10/18 14:51:36;;;;;;;;;;;;;;;18.62;64.73438;102977.5;;;;-74
2022/10/18 14:56:35;;;;;;;;;;;;;;;18.43;64.56934;102979.5;;;;-74
2022/10/18 15:01:35;;;;;;;;;;;;;;;18.36;65.52051;102977.1;;;;-74
2022/10/18 15:06:35;;;;;;;;;;;;;;;18.22;65.45508;102986.1;;;;-74
2022/10/18 15:11:34;;;;;;;;;;;;;;;18.05;65.62305;102990.2;;;;-74
2022/10/18 15:11:49;;;;;;;5;1;;;;;;;;;;;;;-75
2022/10/18 15:16:34;;;;;;;;;;;;;;;17.91;65.52246;102986.2;;;;-75
2022/10/18 15:21:34;;;;;;;;;;;;;;;17.8;66.09473;102992.3;;;;-74
2022/10/18 15:26:34;;;;;;;;;;;;;;;17.7;66.30566;102981.7;;;;-74
2022/10/18 15:31:35;;;;;;;;;;;;;;;17.55;66.72363;102982.2;;;;-74
2022/10/18 15:36:34;;;;;;;;;;;;;;;17.46;66.59668;102982.3;;;;-76
2022/10/18 15:41:45;;;;;;;;;;;;;;;17.35;66.7041;102985.6;;;;-75
2022/10/18 15:41:55;;;;;;;3.6;0.9;;;;;;;;;;;;;-75
2022/10/18 15:46:35;;;;;;;;;;;;;;;17.16;67.2959;102983;;;;-74
2022/10/18 15:51:44;;;;;;;;;;;;;;;16.95;67.42383;102984.3;;;;-76
2022/10/18 15:56:38;;;;;;;;;;;;;;;16.77;67.78906;102976;;;;-74
2022/10/18 16:01:37;;;;;;;;;;;;;;;16.61;68.03516;102977.9;;;;-75
2022/10/18 16:06:36;;;;;;;;;;;;;;;16.43;68.2998;102986.6;;;;-74
2022/10/18 16:11:34;;;;;;;;;;;;;;;16.25;68.71094;102989.9;;;;-75
2022/10/18 16:11:54;;;;;;;4.2;1;;;;;;;;;;;;;-74
2022/10/18 16:16:34;;;;;;;;;;;;;;;16.06;68.66992;102992.4;;;;-75
2022/10/18 16:21:35;;;;;;;;;;;;;;;15.89;68.95703;103004.6;;;;-74
2022/10/18 16:26:34;;;;;;;;;;;;;;;15.68;69.23926;103006.8;;;;-74
2022/10/18 16:31:40;;;;;;;;;;;;;;;15.47;69.56543;103010.3;;;;-75
2022/10/18 16:36:38;;;;;;;;;;;;;;;15.27;70.00586;103012.4;;;;-74
2022/10/18 16:41:43;;;;;;;;;;;;;;;15.07;70.1416;103005.8;;;;-76
2022/10/18 16:41:59;;;;;;;3.7;1.1;;;;;;;;;;;;;-73
2022/10/18 16:46:35;;;;;;;;;;;;;;;14.89;70.54004;103015;;;;-74
2022/10/18 16:51:34;;;;;;;;;;;;;;;14.71;70.70215;103019.9;;;;-75
2022/10/18 16:56:35;;;;;;;;;;;;;;;14.53;70.78418;103023.7;;;;-73
2022/10/18 17:01:35;;;;;;;;;;;;;;;14.36;71.07129;103034.5;;;;-75
2022/10/18 17:06:35;;;;;;;;;;;;;;;14.19;70.16016;103042.9;;;;-75
2022/10/18 17:11:34;;;;;;;;;;;;;;;14;70.71094;103044.9;;;;-74
2022/10/18 17:11:58;;;;;;;3.9;1.2;;;;;;;;;;;;;-76
2022/10/18 17:16:35;;;;;;;;;;;;;;;13.79;70.11816;103054.2;;;;-74
2022/10/18 17:21:34;;;;;;;;;;;;;;;13.67;70.51172;103054.6;;;;-74
2022/10/18 17:26:34;;;;;;;;;;;;;;;13.51;70.96582;103055;;;;-74
2022/10/18 17:31:34;;;;;;;;;;;;;;;13.35;70.67285;103056.2;;;;-74
2022/10/18 17:36:34;;;;;;;;;;;;;;;13.25;71.47168;103061.3;;;;-74
2022/10/18 17:41:34;;;;;;;;;;;;;;;13.11;71.83984;103052.5;;;;-74
2022/10/18 17:41:59;;;;;;;3.3;0.9;;;;;;;;;;;;;-75
2022/10/18 17:46:34;;;;;;;;;;;;;;;12.94;72.0791;103057.8;;;;-76
2022/10/18 17:51:34;;;;;;;;;;;;;;;12.79;72.40137;103057.5;;;;-76
2022/10/18 17:56:34;;;;;;;;;;;;;;;12.66;72.31152;103062.8;;;;-76
2022/10/18 18:01:34;;;;;;;;;;;;;;;12.53;72.66992;103067.8;;;;-76
2022/10/18 18:06:35;;;;;;;;;;;;;;;12.38;72.85742;103071.2;;;;-75
2022/10/18 18:11:34;;;;;;;;;;;;;;;12.26;72.71484;103082.9;;;;-74
2022/10/18 18:12:00;;;;;;;4;1.1;;;;;;;;;;;;;-75
2022/10/18 18:16:34;;;;;;;;;;;;;;;12.17;73.00098;103084.9;;;;-76
2022/10/18 18:21:34;;;;;;;;;;;;;;;12.04;72.94629;103085;;;;-73
2022/10/18 18:26:38;;;;;;;;;;;;;;;11.93;73.04883;103086.4;;;;-78
2022/10/18 18:31:34;;;;;;;;;;;;;;;11.82;73.08789;103089.5;;;;-74
2022/10/18 18:36:34;;;;;;;;;;;;;;;11.73;73.59473;103086.6;;;;-76
2022/10/18 18:41:35;;;;;;;;;;;;;;;11.61;72.94043;103085.1;;;;-74
2022/10/18 18:42:02;;;;;;;4.7;1.7;;;;;;;;;;;;;-76
2022/10/18 18:46:37;;;;;;;;;;;;;;;11.49;73.36426;103087;;;;-76
2022/10/18 18:51:36;;;;;;;;;;;;;;;11.4;73.24902;103087.8;;;;-74
2022/10/18 18:56:34;;;;;;;;;;;;;;;11.29;73.39746;103090.3;;;;-75
2022/10/18 19:01:34;;;;;;;;;;;;;;;11.18;74.0459;103092.8;;;;-75
2022/10/18 19:06:35;;;;;;;;;;;;;;;11.08;73.5957;103095.5;;;;-75
2022/10/18 19:11:36;;;;;;;;;;;;;;;11.01;73.68457;103097;;;;-76
2022/10/18 19:12:03;;;;;;;4.2;1.7;;;;;;;;;;;;;-75
2022/10/18 19:16:34;;;;;;;;;;;;;;;10.89;74.12988;103103.9;;;;-75
2022/10/18 19:21:35;;;;;;;;;;;;;;;10.8;73.49414;103100.3;;;;-74
2022/10/18 19:26:43;;;;;;;;;;;;;;;10.72;73.72266;103100.1;;;;-74
2022/10/18 19:31:34;;;;;;;;;;;;;;;10.6;73.98047;103112.1;;;;-75
2022/10/18 19:36:34;;;;;;;;;;;;;;;10.47;73.6709;103106.5;;;;-74
2022/10/18 19:41:34;;;;;;;;;;;;;;;10.39;74.28809;103108.3;;;;-74
2022/10/18 19:42:05;;;;;;;5.8;1.8;;;;;;;;;;;;;-74
2022/10/18 19:46:34;;;;;;;;;;;;;;;10.31;74.03125;103110.3;;;;-75
2022/10/18 19:51:33;;;;;;;;;;;;;;;10.2;74.42383;103104.1;;;;-74
2022/10/18 19:56:34;;;;;;;;;;;;;;;10.11;74.00781;103091.8;;;;-75
2022/10/18 20:01:36;;;;;;;;;;;;;;;10.04;74.38477;103095.9;;;;-75
2022/10/18 20:06:34;;;;;;;;;;;;;;;9.98;74.77246;103097.9;;;;-75
2022/10/18 20:11:35;;;;;;;;;;;;;;;9.88;74.3916;103103.4;;;;-74
2022/10/18 20:12:04;;;;;;;3.6;1.8;;;;;;;;;;;;;-75
2022/10/18 20:16:35;;;;;;;;;;;;;;;9.78;74.68457;103097.8;;;;-74
2022/10/18 20:21:35;;;;;;;;;;;;;;;9.7;74.58008;103103.7;;;;-75
2022/10/18 20:26:34;;;;;;;;;;;;;;;9.68;74.7334;103101.6;;;;-76
2022/10/18 20:31:37;;;;;;;;;;;;;;;9.56;74.44629;103109.3;;;;-74
2022/10/18 20:36:37;;;;;;;;;;;;;;;9.52;74.2959;103105.9;;;;-74
2022/10/18 20:41:36;;;;;;;;;;;;;;;9.42;74.26855;103105.9;;;;-73
2022/10/18 20:42:05;;;;;;;3.4;1.8;;;;;;;;;;;;;-75
2022/10/18 20:46:35;;;;;;;;;;;;;;;9.37;74.75586;103111.9;;;;-73
2022/10/18 20:51:35;;;;;;;;;;;;;;;9.32;74.28223;103110.6;;;;-74
2022/10/18 20:56:36;;;;;;;;;;;;;;;9.22;74.76465;103107.4;;;;-77
2022/10/18 21:01:37;;;;;;;;;;;;;;;9.15;74.5625;103107.1;;;;-73
2022/10/18 21:06:34;;;;;;;;;;;;;;;9.08;74.60742;103110.3;;;;-74
2022/10/18 21:11:37;;;;;;;;;;;;;;;9;74.70313;103113.6;;;;-73
2022/10/18 21:12:06;;;;;;;4.3;1.8;;;;;;;;;;;;;-75
2022/10/18 21:16:34;;;;;;;;;;;;;;;8.97;74.98535;103110.6;;;;-76
2022/10/18 21:21:34;;;;;;;;;;;;;;;8.86;74.95605;103115.9;;;;-75
2022/10/18 21:26:34;;;;;;;;;;;;;;;8.82;74.38672;103106.6;;;;-74
2022/10/18 21:31:35;;;;;;;;;;;;;;;8.76;74.86133;103105.9;;;;-75
2022/10/18 21:36:35;;;;;;;;;;;;;;;8.69;74.57324;103106.2;;;;-75
2022/10/18 21:41:35;;;;;;;;;;;;;;;8.68;74.5166;103107.1;;;;-74
2022/10/18 21:42:08;;;;;;;4.5;1.8;;;;;;;;;;;;;-74
2022/10/18 21:46:36;;;;;;;;;;;;;;;8.56;74.75;103105.1;;;;-74
2022/10/18 21:51:34;;;;;;;;;;;;;;;8.55;74.76074;103096.4;;;;-74
2022/10/18 21:56:34;;;;;;;;;;;;;;;8.46;74.71094;103110;;;;-73
2022/10/18 22:01:35;;;;;;;;;;;;;;;8.42;74.78027;103101.8;;;;-73
2022/10/18 22:06:34;;;;;;;;;;;;;;;8.4;74.56836;103093.3;;;;-74
2022/10/18 22:11:38;;;;;;;;;;;;;;;8.32;74.7627;103091.7;;;;-75
2022/10/18 22:12:07;;;;;;;4.9;1.9;;;;;;;;;;;;;-74
2022/10/18 22:16:34;;;;;;;;;;;;;;;8.25;74.80664;103091.9;;;;-74
2022/10/18 22:21:34;;;;;;;;;;;;;;;8.22;74.50488;103096.2;;;;-74
2022/10/18 22:26:35;;;;;;;;;;;;;;;8.2;74.67578;103086.4;;;;-74
2022/10/18 22:31:35;;;;;;;;;;;;;;;8.11;74.80566;103081.4;;;;-74
2022/10/18 22:36:34;;;;;;;;;;;;;;;8.06;74.78516;103083.1;;;;-76
2022/10/18 22:41:33;;;;;;;;;;;;;;;8.06;74.6416;103088.6;;;;-74
2022/10/18 22:42:07;;;;;;;4.3;1.7;;;;;;;;;;;;;-74
2022/10/18 22:46:34;;;;;;;;;;;;;;;8.01;74.74414;103079.1;;;;-76
2022/10/18 22:51:33;;;;;;;;;;;;;;;7.97;74.63672;103074.5;;;;-75
2022/10/18 22:56:33;;;;;;;;;;;;;;;7.89;74.77734;103077.2;;;;-75
2022/10/18 23:01:34;;;;;;;;;;;;;;;7.88;74.73145;103067.7;;;;-74
2022/10/18 23:06:35;;;;;;;;;;;;;;;7.83;74.66895;103065.7;;;;-74
2022/10/18 23:11:34;;;;;;;;;;;;;;;7.8;74.7959;103063.8;;;;-75
2022/10/18 23:12:07;;;;;;;3.4;1.6;;;;;;;;;;;;;-75
2022/10/18 23:16:34;;;;;;;;;;;;;;;7.75;74.46875;103070;;;;-76
2022/10/18 23:21:34;;;;;;;;;;;;;;;7.76;74.62305;103074.2;;;;-76
2022/10/18 23:26:33;;;;;;;;;;;;;;;7.72;74.41699;103077.6;;;;-74
2022/10/18 23:31:34;;;;;;;;;;;;;;;7.68;74.47656;103083.2;;;;-73
2022/10/18 23:36:34;;;;;;;;;;;;;;;7.63;74.62305;103079.2;;;;-76
2022/10/18 23:41:33;;;;;;;;;;;;;;;7.59;74.54004;103081.9;;;;-75
2022/10/18 23:42:08;;;;;;;3.3;1.5;;;;;;;;;;;;;-74
2022/10/18 23:46:34;;;;;;;;;;;;;;;7.57;74.66895;103080.9;;;;-74
2022/10/18 23:51:34;;;;;;;;;;;;;;;7.56;74.60156;103074.9;;;;-75
2022/10/18 23:56:34;;;;;;;;;;;;;;;7.6;74.29785;103074.5;;;;-75
